sensor_id;sensor_type;location;lat;lon;timestamp;P1;durP1;ratioP1;P2;durP2;ratioP2
40162;SDS011;25881;47.462;19.304;2023-12-28T00:00:31;16.77;;;8.60;;
40162;SDS011;25881;47.462;19.304;2023-12-28T00:02:56;17.15;;;9.15;;
40162;SDS011;25881;47.462;19.304;2023-12-28T00:05:22;16.80;;;8.93;;
40162;SDS011;25881;47.462;19.304;2023-12-28T00:07:48;13.70;;;9.27;;
40162;SDS011;25881;47.462;19.304;2023-12-28T00:10:14;19.95;;;10.57;;
40162;SDS011;25881;47.462;19.304;2023-12-28T00:12:41;15.93;;;9.45;;
40162;SDS011;25881;47.462;19.304;2023-12-28T00:15:06;15.60;;;9.93;;
40162;SDS011;25881;47.462;19.304;2023-12-28T00:17:34;13.83;;;9.50;;
40162;SDS011;25881;47.462;19.304;2023-12-28T00:19:59;16.90;;;10.38;;
40162;SDS011;25881;47.462;19.304;2023-12-28T00:22:25;17.52;;;10.30;;
40162;SDS011;25881;47.462;19.304;2023-12-28T00:24:50;17.13;;;10.18;;
40162;SDS011;25881;47.462;19.304;2023-12-28T00:27:16;18.10;;;9.82;;
40162;SDS011;25881;47.462;19.304;2023-12-28T00:29:42;15.55;;;9.63;;
40162;SDS011;25881;47.462;19.304;2023-12-28T00:32:08;16.75;;;9.75;;
40162;SDS011;25881;47.462;19.304;2023-12-28T00:34:35;16.83;;;9.73;;
40162;SDS011;25881;47.462;19.304;2023-12-28T00:37:01;17.90;;;10.68;;
40162;SDS011;25881;47.462;19.304;2023-12-28T00:39:27;17.85;;;10.13;;
40162;SDS011;25881;47.462;19.304;2023-12-28T00:41:53;15.75;;;9.95;;
40162;SDS011;25881;47.462;19.304;2023-12-28T00:44:18;13.15;;;8.93;;
40162;SDS011;25881;47.462;19.304;2023-12-28T00:46:43;15.43;;;9.88;;
40162;SDS011;25881;47.462;19.304;2023-12-28T00:49:08;20.52;;;11.38;;
40162;SDS011;25881;47.462;19.304;2023-12-28T00:51:35;18.90;;;11.32;;
40162;SDS011;25881;47.462;19.304;2023-12-28T00:54:03;15.98;;;10.05;;
40162;SDS011;25881;47.462;19.304;2023-12-28T00:56:29;15.27;;;10.27;;
40162;SDS011;25881;47.462;19.304;2023-12-28T00:58:54;14.75;;;9.85;;
40162;SDS011;25881;47.462;19.304;2023-12-28T01:01:21;17.25;;;9.70;;
40162;SDS011;25881;47.462;19.304;2023-12-28T01:03:46;19.17;;;11.48;;
40162;SDS011;25881;47.462;19.304;2023-12-28T01:06:11;18.13;;;11.25;;
40162;SDS011;25881;47.462;19.304;2023-12-28T01:08:37;18.95;;;11.98;;
40162;SDS011;25881;47.462;19.304;2023-12-28T01:11:04;16.70;;;11.18;;
40162;SDS011;25881;47.462;19.304;2023-12-28T01:13:29;19.20;;;11.02;;
40162;SDS011;25881;47.462;19.304;2023-12-28T01:15:56;17.02;;;10.65;;
40162;SDS011;25881;47.462;19.304;2023-12-28T01:18:21;15.65;;;10.75;;
40162;SDS011;25881;47.462;19.304;2023-12-28T01:20:47;21.27;;;10.88;;
40162;SDS011;25881;47.462;19.304;2023-12-28T01:23:13;17.13;;;10.95;;
40162;SDS011;25881;47.462;19.304;2023-12-28T01:25:39;18.80;;;10.45;;
40162;SDS011;25881;47.462;19.304;2023-12-28T01:28:04;19.02;;;11.25;;
40162;SDS011;25881;47.462;19.304;2023-12-28T01:30:30;15.98;;;10.45;;
40162;SDS011;25881;47.462;19.304;2023-12-28T01:32:56;19.13;;;10.57;;
40162;SDS011;25881;47.462;19.304;2023-12-28T01:35:22;16.83;;;10.55;;
40162;SDS011;25881;47.462;19.304;2023-12-28T01:37:48;18.13;;;10.32;;
40162;SDS011;25881;47.462;19.304;2023-12-28T01:40:15;17.92;;;9.63;;
40162;SDS011;25881;47.462;19.304;2023-12-28T01:42:40;15.38;;;10.30;;
40162;SDS011;25881;47.462;19.304;2023-12-28T01:45:06;17.08;;;10.50;;
40162;SDS011;25881;47.462;19.304;2023-12-28T01:47:32;16.13;;;9.90;;
40162;SDS011;25881;47.462;19.304;2023-12-28T01:49:59;15.43;;;10.15;;
40162;SDS011;25881;47.462;19.304;2023-12-28T01:52:24;16.30;;;10.73;;
40162;SDS011;25881;47.462;19.304;2023-12-28T01:54:50;18.38;;;10.85;;
40162;SDS011;25881;47.462;19.304;2023-12-28T01:57:16;20.05;;;11.68;;
40162;SDS011;25881;47.462;19.304;2023-12-28T01:59:41;17.92;;;12.15;;
40162;SDS011;25881;47.462;19.304;2023-12-28T02:02:09;19.30;;;10.98;;
40162;SDS011;25881;47.462;19.304;2023-12-28T02:04:34;14.02;;;9.32;;
40162;SDS011;25881;47.462;19.304;2023-12-28T02:07:00;17.17;;;9.23;;
40162;SDS011;25881;47.462;19.304;2023-12-28T02:09:26;18.20;;;10.25;;
40162;SDS011;25881;47.462;19.304;2023-12-28T02:11:56;18.75;;;10.13;;
40162;SDS011;25881;47.462;19.304;2023-12-28T02:14:21;16.63;;;9.98;;
40162;SDS011;25881;47.462;19.304;2023-12-28T02:16:54;16.42;;;9.63;;
40162;SDS011;25881;47.462;19.304;2023-12-28T02:21:52;15.57;;;9.50;;
40162;SDS011;25881;47.462;19.304;2023-12-28T02:24:18;12.98;;;8.27;;
40162;SDS011;25881;47.462;19.304;2023-12-28T02:26:44;16.92;;;9.40;;
40162;SDS011;25881;47.462;19.304;2023-12-28T02:29:09;15.73;;;8.25;;
40162;SDS011;25881;47.462;19.304;2023-12-28T02:31:36;15.18;;;8.10;;
40162;SDS011;25881;47.462;19.304;2023-12-28T02:34:09;11.35;;;7.88;;
40162;SDS011;25881;47.462;19.304;2023-12-28T02:36:38;15.18;;;8.65;;
40162;SDS011;25881;47.462;19.304;2023-12-28T02:39:06;11.07;;;7.72;;
40162;SDS011;25881;47.462;19.304;2023-12-28T02:41:32;13.07;;;7.95;;
40162;SDS011;25881;47.462;19.304;2023-12-28T02:43:59;15.77;;;8.93;;
40162;SDS011;25881;47.462;19.304;2023-12-28T02:46:26;13.57;;;8.35;;
40162;SDS011;25881;47.462;19.304;2023-12-28T02:48:51;15.45;;;8.65;;
40162;SDS011;25881;47.462;19.304;2023-12-28T02:51:17;14.50;;;8.55;;
40162;SDS011;25881;47.462;19.304;2023-12-28T02:53:43;13.20;;;8.50;;
40162;SDS011;25881;47.462;19.304;2023-12-28T02:56:08;12.50;;;8.23;;
40162;SDS011;25881;47.462;19.304;2023-12-28T02:58:34;14.93;;;8.88;;
40162;SDS011;25881;47.462;19.304;2023-12-28T03:01:00;13.95;;;7.97;;
40162;SDS011;25881;47.462;19.304;2023-12-28T03:03:25;15.57;;;8.43;;
40162;SDS011;25881;47.462;19.304;2023-12-28T03:05:51;11.60;;;7.18;;
40162;SDS011;25881;47.462;19.304;2023-12-28T03:08:16;10.95;;;7.47;;
40162;SDS011;25881;47.462;19.304;2023-12-28T03:10:42;12.57;;;7.95;;
40162;SDS011;25881;47.462;19.304;2023-12-28T03:13:07;15.38;;;8.73;;
40162;SDS011;25881;47.462;19.304;2023-12-28T03:15:33;16.02;;;8.35;;
40162;SDS011;25881;47.462;19.304;2023-12-28T03:17:58;12.20;;;7.82;;
40162;SDS011;25881;47.462;19.304;2023-12-28T03:20:24;15.60;;;8.77;;
40162;SDS011;25881;47.462;19.304;2023-12-28T03:22:49;13.67;;;8.83;;
40162;SDS011;25881;47.462;19.304;2023-12-28T03:25:16;13.97;;;8.20;;
40162;SDS011;25881;47.462;19.304;2023-12-28T03:27:41;14.30;;;9.05;;
40162;SDS011;25881;47.462;19.304;2023-12-28T03:30:06;19.65;;;9.57;;
40162;SDS011;25881;47.462;19.304;2023-12-28T03:32:32;18.48;;;11.05;;
40162;SDS011;25881;47.462;19.304;2023-12-28T03:34:57;14.60;;;9.73;;
40162;SDS011;25881;47.462;19.304;2023-12-28T03:37:22;14.65;;;9.13;;
40162;SDS011;25881;47.462;19.304;2023-12-28T03:39:48;12.35;;;8.23;;
40162;SDS011;25881;47.462;19.304;2023-12-28T03:42:14;13.18;;;7.93;;
40162;SDS011;25881;47.462;19.304;2023-12-28T03:44:40;13.50;;;7.70;;
40162;SDS011;25881;47.462;19.304;2023-12-28T03:47:06;13.70;;;7.90;;
40162;SDS011;25881;47.462;19.304;2023-12-28T03:49:32;15.65;;;8.20;;
40162;SDS011;25881;47.462;19.304;2023-12-28T03:51:57;14.60;;;9.40;;
40162;SDS011;25881;47.462;19.304;2023-12-28T03:54:24;14.80;;;7.72;;
40162;SDS011;25881;47.462;19.304;2023-12-28T03:56:49;13.60;;;8.20;;
40162;SDS011;25881;47.462;19.304;2023-12-28T03:59:15;16.67;;;8.85;;
40162;SDS011;25881;47.462;19.304;2023-12-28T04:01:40;16.15;;;8.90;;
40162;SDS011;25881;47.462;19.304;2023-12-28T04:04:06;16.85;;;9.52;;
40162;SDS011;25881;47.462;19.304;2023-12-28T04:06:31;15.60;;;8.20;;
40162;SDS011;25881;47.462;19.304;2023-12-28T04:08:57;15.85;;;9.07;;
40162;SDS011;25881;47.462;19.304;2023-12-28T04:11:22;19.25;;;10.27;;
40162;SDS011;25881;47.462;19.304;2023-12-28T04:13:48;17.45;;;9.45;;
40162;SDS011;25881;47.462;19.304;2023-12-28T04:16:14;14.30;;;9.02;;
40162;SDS011;25881;47.462;19.304;2023-12-28T04:18:43;14.63;;;9.95;;
40162;SDS011;25881;47.462;19.304;2023-12-28T04:21:11;18.55;;;10.43;;
40162;SDS011;25881;47.462;19.304;2023-12-28T04:23:36;16.10;;;10.02;;
40162;SDS011;25881;47.462;19.304;2023-12-28T04:26:02;19.00;;;10.60;;
40162;SDS011;25881;47.462;19.304;2023-12-28T04:28:29;15.70;;;10.02;;
40162;SDS011;25881;47.462;19.304;2023-12-28T04:30:55;16.85;;;10.25;;
40162;SDS011;25881;47.462;19.304;2023-12-28T04:33:20;14.50;;;10.25;;
40162;SDS011;25881;47.462;19.304;2023-12-28T04:35:45;17.23;;;10.95;;
40162;SDS011;25881;47.462;19.304;2023-12-28T04:38:13;20.55;;;11.63;;
40162;SDS011;25881;47.462;19.304;2023-12-28T04:40:38;21.30;;;11.93;;
40162;SDS011;25881;47.462;19.304;2023-12-28T04:43:04;19.23;;;11.25;;
40162;SDS011;25881;47.462;19.304;2023-12-28T04:45:29;19.25;;;11.38;;
40162;SDS011;25881;47.462;19.304;2023-12-28T04:47:54;20.10;;;11.77;;
40162;SDS011;25881;47.462;19.304;2023-12-28T04:50:22;19.30;;;11.48;;
40162;SDS011;25881;47.462;19.304;2023-12-28T04:52:48;21.55;;;12.20;;
40162;SDS011;25881;47.462;19.304;2023-12-28T04:55:14;21.13;;;12.48;;
40162;SDS011;25881;47.462;19.304;2023-12-28T04:57:41;20.40;;;11.90;;
40162;SDS011;25881;47.462;19.304;2023-12-28T05:00:06;18.25;;;11.82;;
40162;SDS011;25881;47.462;19.304;2023-12-28T05:02:33;21.23;;;11.30;;
40162;SDS011;25881;47.462;19.304;2023-12-28T05:04:59;20.35;;;12.23;;
40162;SDS011;25881;47.462;19.304;2023-12-28T05:07:24;22.83;;;12.02;;
40162;SDS011;25881;47.462;19.304;2023-12-28T05:09:49;26.92;;;13.15;;
40162;SDS011;25881;47.462;19.304;2023-12-28T05:12:16;18.58;;;11.57;;
40162;SDS011;25881;47.462;19.304;2023-12-28T05:14:42;23.42;;;12.95;;
40162;SDS011;25881;47.462;19.304;2023-12-28T05:17:07;20.85;;;13.65;;
40162;SDS011;25881;47.462;19.304;2023-12-28T05:19:34;20.25;;;13.48;;
40162;SDS011;25881;47.462;19.304;2023-12-28T05:21:59;22.52;;;12.75;;
40162;SDS011;25881;47.462;19.304;2023-12-28T05:24:28;22.40;;;11.98;;
40162;SDS011;25881;47.462;19.304;2023-12-28T05:26:55;23.92;;;15.02;;
40162;SDS011;25881;47.462;19.304;2023-12-28T05:29:24;25.48;;;14.95;;
40162;SDS011;25881;47.462;19.304;2023-12-28T05:31:49;24.75;;;14.80;;
40162;SDS011;25881;47.462;19.304;2023-12-28T05:34:15;22.33;;;14.67;;
40162;SDS011;25881;47.462;19.304;2023-12-28T05:36:40;27.92;;;14.32;;
40162;SDS011;25881;47.462;19.304;2023-12-28T05:39:06;23.83;;;14.98;;
40162;SDS011;25881;47.462;19.304;2023-12-28T05:41:34;24.55;;;14.85;;
40162;SDS011;25881;47.462;19.304;2023-12-28T05:44:00;25.07;;;15.80;;
40162;SDS011;25881;47.462;19.304;2023-12-28T05:46:26;26.05;;;16.08;;
40162;SDS011;25881;47.462;19.304;2023-12-28T05:48:52;25.85;;;16.50;;
40162;SDS011;25881;47.462;19.304;2023-12-28T05:51:17;31.75;;;18.85;;
40162;SDS011;25881;47.462;19.304;2023-12-28T05:53:43;22.95;;;16.40;;
40162;SDS011;25881;47.462;19.304;2023-12-28T05:56:09;24.25;;;16.00;;
40162;SDS011;25881;47.462;19.304;2023-12-28T05:58:34;25.35;;;16.30;;
40162;SDS011;25881;47.462;19.304;2023-12-28T06:00:59;23.90;;;15.85;;
40162;SDS011;25881;47.462;19.304;2023-12-28T06:03:26;26.13;;;14.80;;
40162;SDS011;25881;47.462;19.304;2023-12-28T06:05:54;23.63;;;15.20;;
40162;SDS011;25881;47.462;19.304;2023-12-28T06:08:20;22.58;;;14.00;;
40162;SDS011;25881;47.462;19.304;2023-12-28T06:10:46;24.42;;;15.18;;
40162;SDS011;25881;47.462;19.304;2023-12-28T06:13:11;24.60;;;14.25;;
40162;SDS011;25881;47.462;19.304;2023-12-28T06:15:38;26.27;;;14.32;;
40162;SDS011;25881;47.462;19.304;2023-12-28T06:18:05;24.48;;;14.45;;
40162;SDS011;25881;47.462;19.304;2023-12-28T06:20:30;24.67;;;14.20;;
40162;SDS011;25881;47.462;19.304;2023-12-28T06:22:56;29.75;;;16.50;;
40162;SDS011;25881;47.462;19.304;2023-12-28T06:25:21;24.77;;;14.80;;
40162;SDS011;25881;47.462;19.304;2023-12-28T06:27:48;29.48;;;15.98;;
40162;SDS011;25881;47.462;19.304;2023-12-28T06:30:13;26.45;;;15.15;;
40162;SDS011;25881;47.462;19.304;2023-12-28T06:32:40;28.88;;;16.45;;
40162;SDS011;25881;47.462;19.304;2023-12-28T06:35:05;25.98;;;15.85;;
40162;SDS011;25881;47.462;19.304;2023-12-28T06:37:32;30.70;;;16.85;;
40162;SDS011;25881;47.462;19.304;2023-12-28T06:39:58;26.88;;;16.95;;
40162;SDS011;25881;47.462;19.304;2023-12-28T06:42:23;26.65;;;17.42;;
40162;SDS011;25881;47.462;19.304;2023-12-28T06:44:50;25.48;;;16.05;;
40162;SDS011;25881;47.462;19.304;2023-12-28T06:47:15;24.90;;;15.93;;
40162;SDS011;25881;47.462;19.304;2023-12-28T06:49:41;26.27;;;16.00;;
40162;SDS011;25881;47.462;19.304;2023-12-28T06:52:07;32.53;;;16.98;;
40162;SDS011;25881;47.462;19.304;2023-12-28T06:54:32;29.00;;;17.42;;
40162;SDS011;25881;47.462;19.304;2023-12-28T06:56:57;28.05;;;17.85;;
40162;SDS011;25881;47.462;19.304;2023-12-28T06:59:23;27.30;;;16.70;;
40162;SDS011;25881;47.462;19.304;2023-12-28T07:01:48;29.58;;;16.98;;
40162;SDS011;25881;47.462;19.304;2023-12-28T07:04:15;28.15;;;19.20;;
40162;SDS011;25881;47.462;19.304;2023-12-28T07:06:40;35.58;;;20.15;;
40162;SDS011;25881;47.462;19.304;2023-12-28T07:09:06;28.20;;;18.88;;
40162;SDS011;25881;47.462;19.304;2023-12-28T07:11:31;34.15;;;21.20;;
40162;SDS011;25881;47.462;19.304;2023-12-28T07:13:57;36.65;;;19.77;;
40162;SDS011;25881;47.462;19.304;2023-12-28T07:16:23;33.85;;;20.08;;
40162;SDS011;25881;47.462;19.304;2023-12-28T07:18:48;31.23;;;20.48;;
40162;SDS011;25881;47.462;19.304;2023-12-28T07:21:15;34.83;;;21.45;;
40162;SDS011;25881;47.462;19.304;2023-12-28T07:23:40;32.75;;;21.23;;
40162;SDS011;25881;47.462;19.304;2023-12-28T07:26:06;27.52;;;19.58;;
40162;SDS011;25881;47.462;19.304;2023-12-28T07:28:31;32.72;;;20.42;;
40162;SDS011;25881;47.462;19.304;2023-12-28T07:30:56;35.55;;;20.10;;
40162;SDS011;25881;47.462;19.304;2023-12-28T07:33:22;37.45;;;22.30;;
40162;SDS011;25881;47.462;19.304;2023-12-28T07:35:47;36.83;;;21.58;;
40162;SDS011;25881;47.462;19.304;2023-12-28T07:38:13;36.10;;;20.30;;
40162;SDS011;25881;47.462;19.304;2023-12-28T07:40:39;34.70;;;20.42;;
40162;SDS011;25881;47.462;19.304;2023-12-28T07:43:04;33.35;;;20.15;;
40162;SDS011;25881;47.462;19.304;2023-12-28T07:45:30;32.95;;;21.65;;
40162;SDS011;25881;47.462;19.304;2023-12-28T07:47:59;31.27;;;20.23;;
40162;SDS011;25881;47.462;19.304;2023-12-28T07:50:24;33.40;;;18.85;;
40162;SDS011;25881;47.462;19.304;2023-12-28T07:52:50;29.13;;;19.08;;
40162;SDS011;25881;47.462;19.304;2023-12-28T07:55:16;33.10;;;19.38;;
40162;SDS011;25881;47.462;19.304;2023-12-28T07:57:42;31.55;;;19.75;;
40162;SDS011;25881;47.462;19.304;2023-12-28T08:00:07;31.13;;;20.40;;
40162;SDS011;25881;47.462;19.304;2023-12-28T08:02:33;36.33;;;21.52;;
40162;SDS011;25881;47.462;19.304;2023-12-28T08:04:59;31.05;;;19.35;;
40162;SDS011;25881;47.462;19.304;2023-12-28T08:07:25;29.58;;;20.00;;
40162;SDS011;25881;47.462;19.304;2023-12-28T08:09:50;30.23;;;19.70;;
40162;SDS011;25881;47.462;19.304;2023-12-28T08:12:17;33.97;;;20.15;;
40162;SDS011;25881;47.462;19.304;2023-12-28T08:14:42;42.30;;;21.83;;
40162;SDS011;25881;47.462;19.304;2023-12-28T08:17:08;32.17;;;19.35;;
40162;SDS011;25881;47.462;19.304;2023-12-28T08:19:33;36.40;;;19.90;;
40162;SDS011;25881;47.462;19.304;2023-12-28T08:22:02;33.80;;;20.40;;
40162;SDS011;25881;47.462;19.304;2023-12-28T08:24:28;40.65;;;21.23;;
40162;SDS011;25881;47.462;19.304;2023-12-28T08:26:54;37.75;;;22.88;;
40162;SDS011;25881;47.462;19.304;2023-12-28T08:29:24;42.10;;;24.10;;
40162;SDS011;25881;47.462;19.304;2023-12-28T08:31:49;42.75;;;23.90;;
40162;SDS011;25881;47.462;19.304;2023-12-28T08:34:24;46.97;;;26.27;;
40162;SDS011;25881;47.462;19.304;2023-12-28T08:36:53;61.63;;;35.97;;
40162;SDS011;25881;47.462;19.304;2023-12-28T08:39:27;48.88;;;29.52;;
40162;SDS011;25881;47.462;19.304;2023-12-28T08:42:08;34.70;;;21.58;;
40162;SDS011;25881;47.462;19.304;2023-12-28T08:44:49;33.13;;;20.42;;
40162;SDS011;25881;47.462;19.304;2023-12-28T08:47:19;34.78;;;21.08;;
40162;SDS011;25881;47.462;19.304;2023-12-28T08:49:52;37.90;;;22.98;;
40162;SDS011;25881;47.462;19.304;2023-12-28T08:52:19;34.13;;;21.42;;
40162;SDS011;25881;47.462;19.304;2023-12-28T08:54:50;33.55;;;21.17;;
40162;SDS011;25881;47.462;19.304;2023-12-28T08:57:18;33.67;;;21.63;;
40162;SDS011;25881;47.462;19.304;2023-12-28T08:59:44;34.72;;;21.27;;
40162;SDS011;25881;47.462;19.304;2023-12-28T09:02:09;33.20;;;21.75;;
40162;SDS011;25881;47.462;19.304;2023-12-28T09:04:35;37.28;;;21.20;;
40162;SDS011;25881;47.462;19.304;2023-12-28T09:07:05;32.55;;;21.40;;
40162;SDS011;25881;47.462;19.304;2023-12-28T09:09:34;34.85;;;21.38;;
40162;SDS011;25881;47.462;19.304;2023-12-28T09:12:02;35.00;;;23.08;;
40162;SDS011;25881;47.462;19.304;2023-12-28T09:14:30;35.22;;;22.02;;
40162;SDS011;25881;47.462;19.304;2023-12-28T09:16:58;44.25;;;25.13;;
40162;SDS011;25881;47.462;19.304;2023-12-28T09:19:30;36.63;;;22.95;;
40162;SDS011;25881;47.462;19.304;2023-12-28T09:22:07;38.17;;;22.55;;
40162;SDS011;25881;47.462;19.304;2023-12-28T09:24:35;36.63;;;22.58;;
40162;SDS011;25881;47.462;19.304;2023-12-28T09:27:01;35.20;;;21.90;;
40162;SDS011;25881;47.462;19.304;2023-12-28T09:29:28;35.67;;;23.45;;
40162;SDS011;25881;47.462;19.304;2023-12-28T09:31:54;32.10;;;21.95;;
40162;SDS011;25881;47.462;19.304;2023-12-28T09:34:22;39.80;;;23.13;;
40162;SDS011;25881;47.462;19.304;2023-12-28T09:36:51;37.35;;;23.23;;
40162;SDS011;25881;47.462;19.304;2023-12-28T09:39:17;38.45;;;23.42;;
40162;SDS011;25881;47.462;19.304;2023-12-28T09:41:44;33.38;;;21.10;;
40162;SDS011;25881;47.462;19.304;2023-12-28T09:44:20;31.80;;;20.73;;
40162;SDS011;25881;47.462;19.304;2023-12-28T09:46:51;35.08;;;23.30;;
40162;SDS011;25881;47.462;19.304;2023-12-28T09:49:32;34.88;;;22.08;;
40162;SDS011;25881;47.462;19.304;2023-12-28T09:52:02;32.00;;;20.63;;
40162;SDS011;25881;47.462;19.304;2023-12-28T09:54:31;34.95;;;22.50;;
40162;SDS011;25881;47.462;19.304;2023-12-28T09:56:57;35.70;;;22.58;;
40162;SDS011;25881;47.462;19.304;2023-12-28T09:59:26;39.53;;;23.27;;
40162;SDS011;25881;47.462;19.304;2023-12-28T10:02:03;32.63;;;21.70;;
40162;SDS011;25881;47.462;19.304;2023-12-28T10:04:34;34.80;;;22.63;;
40162;SDS011;25881;47.462;19.304;2023-12-28T10:07:09;32.63;;;20.95;;
40162;SDS011;25881;47.462;19.304;2023-12-28T10:09:36;38.35;;;20.98;;
40162;SDS011;25881;47.462;19.304;2023-12-28T10:12:02;35.53;;;22.27;;
40162;SDS011;25881;47.462;19.304;2023-12-28T10:14:29;31.92;;;21.30;;
40162;SDS011;25881;47.462;19.304;2023-12-28T10:16:56;29.77;;;19.17;;
40162;SDS011;25881;47.462;19.304;2023-12-28T10:19:22;33.53;;;18.97;;
40162;SDS011;25881;47.462;19.304;2023-12-28T10:21:50;34.88;;;19.02;;
40162;SDS011;25881;47.462;19.304;2023-12-28T10:24:18;31.95;;;19.90;;
40162;SDS011;25881;47.462;19.304;2023-12-28T10:26:43;32.20;;;18.90;;
40162;SDS011;25881;47.462;19.304;2023-12-28T10:29:09;29.73;;;19.27;;
40162;SDS011;25881;47.462;19.304;2023-12-28T10:31:34;33.28;;;19.23;;
40162;SDS011;25881;47.462;19.304;2023-12-28T10:34:01;30.02;;;19.77;;
40162;SDS011;25881;47.462;19.304;2023-12-28T10:36:31;30.00;;;18.77;;
40162;SDS011;25881;47.462;19.304;2023-12-28T10:38:57;28.20;;;17.90;;
40162;SDS011;25881;47.462;19.304;2023-12-28T10:41:24;33.33;;;17.40;;
40162;SDS011;25881;47.462;19.304;2023-12-28T10:46:34;29.48;;;19.10;;
40162;SDS011;25881;47.462;19.304;2023-12-28T10:49:15;31.40;;;19.90;;
40162;SDS011;25881;47.462;19.304;2023-12-28T10:51:41;35.00;;;18.20;;
40162;SDS011;25881;47.462;19.304;2023-12-28T10:56:55;32.95;;;20.10;;
40162;SDS011;25881;47.462;19.304;2023-12-28T10:59:50;27.83;;;18.45;;
40162;SDS011;25881;47.462;19.304;2023-12-28T11:02:19;29.67;;;19.30;;
40162;SDS011;25881;47.462;19.304;2023-12-28T11:04:50;34.80;;;20.07;;
40162;SDS011;25881;47.462;19.304;2023-12-28T11:07:18;33.42;;;19.95;;
40162;SDS011;25881;47.462;19.304;2023-12-28T11:09:45;25.65;;;18.13;;
40162;SDS011;25881;47.462;19.304;2023-12-28T11:12:11;31.23;;;20.58;;
40162;SDS011;25881;47.462;19.304;2023-12-28T11:14:40;29.08;;;18.05;;
40162;SDS011;25881;47.462;19.304;2023-12-28T11:17:05;30.60;;;18.05;;
40162;SDS011;25881;47.462;19.304;2023-12-28T11:19:31;27.70;;;18.00;;
40162;SDS011;25881;47.462;19.304;2023-12-28T11:22:00;33.63;;;20.65;;
40162;SDS011;25881;47.462;19.304;2023-12-28T11:24:27;34.60;;;18.70;;
40162;SDS011;25881;47.462;19.304;2023-12-28T11:26:53;34.58;;;20.45;;
40162;SDS011;25881;47.462;19.304;2023-12-28T11:29:24;34.85;;;19.13;;
40162;SDS011;25881;47.462;19.304;2023-12-28T11:31:52;27.40;;;18.50;;
40162;SDS011;25881;47.462;19.304;2023-12-28T11:34:30;27.52;;;18.00;;
40162;SDS011;25881;47.462;19.304;2023-12-28T11:36:56;24.35;;;17.63;;
40162;SDS011;25881;47.462;19.304;2023-12-28T11:39:31;23.98;;;16.30;;
40162;SDS011;25881;47.462;19.304;2023-12-28T11:42:05;29.48;;;15.63;;
40162;SDS011;25881;47.462;19.304;2023-12-28T11:44:39;27.10;;;16.00;;
40162;SDS011;25881;47.462;19.304;2023-12-28T11:47:11;26.92;;;15.45;;
40162;SDS011;25881;47.462;19.304;2023-12-28T11:49:36;23.35;;;15.90;;
40162;SDS011;25881;47.462;19.304;2023-12-28T11:52:02;27.15;;;16.15;;
40162;SDS011;25881;47.462;19.304;2023-12-28T11:54:27;24.23;;;15.82;;
40162;SDS011;25881;47.462;19.304;2023-12-28T11:56:53;29.25;;;15.88;;
40162;SDS011;25881;47.462;19.304;2023-12-28T11:59:19;27.92;;;17.40;;
40162;SDS011;25881;47.462;19.304;2023-12-28T12:01:49;27.55;;;16.17;;
40162;SDS011;25881;47.462;19.304;2023-12-28T12:04:14;25.50;;;15.93;;
40162;SDS011;25881;47.462;19.304;2023-12-28T12:06:39;24.95;;;16.40;;
40162;SDS011;25881;47.462;19.304;2023-12-28T12:09:06;27.85;;;16.52;;
40162;SDS011;25881;47.462;19.304;2023-12-28T12:11:32;29.88;;;16.13;;
40162;SDS011;25881;47.462;19.304;2023-12-28T12:13:57;27.90;;;16.15;;
40162;SDS011;25881;47.462;19.304;2023-12-28T12:16:22;29.25;;;17.42;;
40162;SDS011;25881;47.462;19.304;2023-12-28T12:18:48;28.50;;;17.85;;
40162;SDS011;25881;47.462;19.304;2023-12-28T12:21:14;26.02;;;16.85;;
40162;SDS011;25881;47.462;19.304;2023-12-28T12:23:40;24.73;;;15.85;;
40162;SDS011;25881;47.462;19.304;2023-12-28T12:26:07;29.33;;;18.00;;
40162;SDS011;25881;47.462;19.304;2023-12-28T12:28:32;26.50;;;17.23;;
40162;SDS011;25881;47.462;19.304;2023-12-28T12:30:58;28.73;;;17.25;;
40162;SDS011;25881;47.462;19.304;2023-12-28T12:33:26;27.20;;;17.60;;
40162;SDS011;25881;47.462;19.304;2023-12-28T12:35:52;26.05;;;16.75;;
40162;SDS011;25881;47.462;19.304;2023-12-28T12:38:18;24.80;;;17.13;;
40162;SDS011;25881;47.462;19.304;2023-12-28T12:40:43;31.23;;;18.55;;
40162;SDS011;25881;47.462;19.304;2023-12-28T12:43:11;29.33;;;17.07;;
40162;SDS011;25881;47.462;19.304;2023-12-28T12:45:37;30.70;;;17.52;;
40162;SDS011;25881;47.462;19.304;2023-12-28T12:48:03;28.77;;;17.88;;
40162;SDS011;25881;47.462;19.304;2023-12-28T12:50:29;27.90;;;18.30;;
40162;SDS011;25881;47.462;19.304;2023-12-28T12:52:55;25.95;;;17.80;;
40162;SDS011;25881;47.462;19.304;2023-12-28T12:55:22;28.05;;;17.80;;
40162;SDS011;25881;47.462;19.304;2023-12-28T12:57:48;26.02;;;18.40;;
40162;SDS011;25881;47.462;19.304;2023-12-28T13:00:14;28.48;;;18.50;;
40162;SDS011;25881;47.462;19.304;2023-12-28T13:02:39;31.33;;;17.08;;
40162;SDS011;25881;47.462;19.304;2023-12-28T13:05:06;31.15;;;17.50;;
40162;SDS011;25881;47.462;19.304;2023-12-28T13:07:32;30.63;;;17.52;;
40162;SDS011;25881;47.462;19.304;2023-12-28T13:10:00;26.65;;;17.98;;
40162;SDS011;25881;47.462;19.304;2023-12-28T13:12:25;25.88;;;18.60;;
40162;SDS011;25881;47.462;19.304;2023-12-28T13:14:51;27.92;;;18.23;;
40162;SDS011;25881;47.462;19.304;2023-12-28T13:17:17;27.00;;;18.75;;
40162;SDS011;25881;47.462;19.304;2023-12-28T13:19:42;29.58;;;17.60;;
40162;SDS011;25881;47.462;19.304;2023-12-28T13:22:08;26.23;;;16.42;;
40162;SDS011;25881;47.462;19.304;2023-12-28T13:24:34;23.35;;;15.68;;
40162;SDS011;25881;47.462;19.304;2023-12-28T13:27:01;24.00;;;16.10;;
40162;SDS011;25881;47.462;19.304;2023-12-28T13:29:27;28.42;;;15.00;;
40162;SDS011;25881;47.462;19.304;2023-12-28T13:31:53;20.67;;;14.25;;
40162;SDS011;25881;47.462;19.304;2023-12-28T13:34:19;26.80;;;15.65;;
40162;SDS011;25881;47.462;19.304;2023-12-28T13:36:45;26.33;;;15.95;;
40162;SDS011;25881;47.462;19.304;2023-12-28T13:39:16;25.60;;;17.33;;
40162;SDS011;25881;47.462;19.304;2023-12-28T13:41:43;25.13;;;15.68;;
40162;SDS011;25881;47.462;19.304;2023-12-28T13:46:55;29.45;;;16.27;;
40162;SDS011;25881;47.462;19.304;2023-12-28T13:49:24;29.10;;;16.92;;
40162;SDS011;25881;47.462;19.304;2023-12-28T13:51:57;28.48;;;16.92;;
40162;SDS011;25881;47.462;19.304;2023-12-28T13:54:24;25.85;;;17.73;;
40162;SDS011;25881;47.462;19.304;2023-12-28T13:56:56;25.48;;;17.85;;
40162;SDS011;25881;47.462;19.304;2023-12-28T13:59:25;25.60;;;17.40;;
40162;SDS011;25881;47.462;19.304;2023-12-28T14:02:00;29.63;;;17.20;;
40162;SDS011;25881;47.462;19.304;2023-12-28T14:04:35;24.27;;;16.45;;
40162;SDS011;25881;47.462;19.304;2023-12-28T14:07:02;29.02;;;17.77;;
40162;SDS011;25881;47.462;19.304;2023-12-28T14:09:30;25.80;;;17.80;;
40162;SDS011;25881;47.462;19.304;2023-12-28T14:11:58;21.58;;;15.90;;
40162;SDS011;25881;47.462;19.304;2023-12-28T14:14:34;25.92;;;16.98;;
40162;SDS011;25881;47.462;19.304;2023-12-28T14:17:04;29.30;;;18.70;;
40162;SDS011;25881;47.462;19.304;2023-12-28T14:19:31;28.05;;;18.73;;